sensor_id;sensor_type;location;lat;lon;timestamp;P1;durP1;ratioP1;P2;durP2;ratioP2
19946;SDS011;10135;50.702;7.276;2023-09-19T05:01:53;7.70;;;1.87;;
19946;SDS011;10135;50.702;7.276;2023-09-19T05:03:54;4.17;;;1.77;;
19946;SDS011;10135;50.702;7.276;2023-09-19T05:05:55;9.30;;;1.70;;
19946;SDS011;10135;50.702;7.276;2023-09-19T05:07:55;1.90;;;1.57;;
19946;SDS011;10135;50.702;7.276;2023-09-19T05:09:56;2.13;;;1.60;;
19946;SDS011;10135;50.702;7.276;2023-09-19T05:11:57;2.97;;;1.50;;
19946;SDS011;10135;50.702;7.276;2023-09-19T05:13:58;4.00;;;1.80;;
19946;SDS011;10135;50.702;7.276;2023-09-19T05:16:03;3.07;;;1.70;;
19946;SDS011;10135;50.702;7.276;2023-09-19T05:18:04;4.57;;;1.60;;
19946;SDS011;10135;50.702;7.276;2023-09-19T05:20:06;4.07;;;1.70;;
19946;SDS011;10135;50.702;7.276;2023-09-19T05:22:15;5.47;;;1.70;;
19946;SDS011;10135;50.702;7.276;2023-09-19T05:24:18;2.30;;;1.60;;
19946;SDS011;10135;50.702;7.276;2023-09-19T05:26:19;4.67;;;1.70;;
19946;SDS011;10135;50.702;7.276;2023-09-19T05:28:20;4.70;;;1.70;;
19946;SDS011;10135;50.702;7.276;2023-09-19T05:30:21;4.47;;;1.70;;
19946;SDS011;10135;50.702;7.276;2023-09-19T05:32:22;3.17;;;1.83;;
19946;SDS011;10135;50.702;7.276;2023-09-19T05:34:23;3.23;;;1.70;;
19946;SDS011;10135;50.702;7.276;2023-09-19T05:36:30;4.47;;;1.43;;
19946;SDS011;10135;50.702;7.276;2023-09-19T05:38:30;3.87;;;1.53;;
19946;SDS011;10135;50.702;7.276;2023-09-19T05:40:32;3.80;;;1.70;;
19946;SDS011;10135;50.702;7.276;2023-09-19T05:42:33;5.13;;;1.70;;
19946;SDS011;10135;50.702;7.276;2023-09-19T05:44:33;2.70;;;1.80;;
19946;SDS011;10135;50.702;7.276;2023-09-19T05:46:35;3.53;;;1.37;;
19946;SDS011;10135;50.702;7.276;2023-09-19T05:48:35;4.30;;;1.67;;
19946;SDS011;10135;50.702;7.276;2023-09-19T05:50:36;2.00;;;1.60;;
19946;SDS011;10135;50.702;7.276;2023-09-19T05:52:37;1.93;;;1.50;;
19946;SDS011;10135;50.702;7.276;2023-09-19T05:54:38;3.27;;;1.87;;
19946;SDS011;10135;50.702;7.276;2023-09-19T05:56:39;2.87;;;1.60;;
19946;SDS011;10135;50.702;7.276;2023-09-19T05:58:41;3.70;;;1.60;;
19946;SDS011;10135;50.702;7.276;2023-09-19T06:00:44;2.80;;;1.40;;
19946;SDS011;10135;50.702;7.276;2023-09-19T06:02:49;3.70;;;1.77;;
19946;SDS011;10135;50.702;7.276;2023-09-19T06:04:57;5.97;;;1.60;;
19946;SDS011;10135;50.702;7.276;2023-09-19T06:06:58;3.37;;;1.50;;
19946;SDS011;10135;50.702;7.276;2023-09-19T06:08:58;2.83;;;1.70;;
19946;SDS011;10135;50.702;7.276;2023-09-19T06:10:59;3.93;;;1.60;;
19946;SDS011;10135;50.702;7.276;2023-09-19T06:13:00;7.40;;;1.70;;
19946;SDS011;10135;50.702;7.276;2023-09-19T06:15:06;2.90;;;1.33;;
19946;SDS011;10135;50.702;7.276;2023-09-19T06:17:12;4.67;;;1.63;;
19946;SDS011;10135;50.702;7.276;2023-09-19T06:19:14;4.17;;;1.90;;
19946;SDS011;10135;50.702;7.276;2023-09-19T06:21:15;3.37;;;1.60;;
19946;SDS011;10135;50.702;7.276;2023-09-19T06:23:15;6.20;;;1.90;;
19946;SDS011;10135;50.702;7.276;2023-09-19T06:25:17;2.87;;;1.60;;
19946;SDS011;10135;50.702;7.276;2023-09-19T06:27:21;4.10;;;1.43;;
19946;SDS011;10135;50.702;7.276;2023-09-19T06:29:22;2.77;;;1.90;;
19946;SDS011;10135;50.702;7.276;2023-09-19T06:31:23;2.93;;;1.60;;
19946;SDS011;10135;50.702;7.276;2023-09-19T06:33:26;6.27;;;1.80;;
19946;SDS011;10135;50.702;7.276;2023-09-19T06:35:27;2.67;;;1.70;;
19946;SDS011;10135;50.702;7.276;2023-09-19T06:37:32;2.90;;;1.90;;
19946;SDS011;10135;50.702;7.276;2023-09-19T06:39:34;4.77;;;1.97;;
19946;SDS011;10135;50.702;7.276;2023-09-19T06:41:35;2.23;;;1.57;;
19946;SDS011;10135;50.702;7.276;2023-09-19T06:43:35;3.87;;;1.77;;
19946;SDS011;10135;50.702;7.276;2023-09-19T06:45:36;5.17;;;1.90;;
19946;SDS011;10135;50.702;7.276;2023-09-19T06:47:37;2.23;;;1.77;;
19946;SDS011;10135;50.702;7.276;2023-09-19T06:49:37;5.60;;;2.47;;
19946;SDS011;10135;50.702;7.276;2023-09-19T06:51:38;4.00;;;1.80;;
19946;SDS011;10135;50.702;7.276;2023-09-19T06:53:38;5.13;;;2.00;;
19946;SDS011;10135;50.702;7.276;2023-09-19T06:55:40;4.57;;;1.80;;
19946;SDS011;10135;50.702;7.276;2023-09-19T06:57:40;5.70;;;2.00;;
19946;SDS011;10135;50.702;7.276;2023-09-19T06:59:43;3.90;;;1.60;;
19946;SDS011;10135;50.702;7.276;2023-09-19T07:01:45;2.30;;;1.60;;
19946;SDS011;10135;50.702;7.276;2023-09-19T07:03:47;2.43;;;1.63;;
19946;SDS011;10135;50.702;7.276;2023-09-19T07:05:48;4.03;;;1.60;;
19946;SDS011;10135;50.702;7.276;2023-09-19T07:07:48;2.17;;;1.43;;
19946;SDS011;10135;50.702;7.276;2023-09-19T07:09:49;13.50;;;2.17;;
19946;SDS011;10135;50.702;7.276;2023-09-19T07:11:51;4.30;;;1.67;;
19946;SDS011;10135;50.702;7.276;2023-09-19T07:13:51;1.67;;;1.50;;
19946;SDS011;10135;50.702;7.276;2023-09-19T07:15:52;3.20;;;1.70;;
19946;SDS011;10135;50.702;7.276;2023-09-19T07:17:54;4.67;;;1.70;;
19946;SDS011;10135;50.702;7.276;2023-09-19T07:19:56;5.07;;;1.80;;
19946;SDS011;10135;50.702;7.276;2023-09-19T07:21:58;3.63;;;1.70;;
19946;SDS011;10135;50.702;7.276;2023-09-19T07:24:02;3.43;;;1.80;;
19946;SDS011;10135;50.702;7.276;2023-09-19T07:26:03;4.80;;;1.70;;
19946;SDS011;10135;50.702;7.276;2023-09-19T07:28:05;3.80;;;1.50;;
19946;SDS011;10135;50.702;7.276;2023-09-19T07:30:06;4.97;;;1.83;;
19946;SDS011;10135;50.702;7.276;2023-09-19T07:32:08;2.80;;;1.77;;
19946;SDS011;10135;50.702;7.276;2023-09-19T07:34:10;4.03;;;1.63;;
19946;SDS011;10135;50.702;7.276;2023-09-19T07:36:10;5.37;;;2.00;;
19946;SDS011;10135;50.702;7.276;2023-09-19T07:38:13;3.67;;;1.63;;
19946;SDS011;10135;50.702;7.276;2023-09-19T07:40:14;5.63;;;1.90;;
19946;SDS011;10135;50.702;7.276;2023-09-19T07:42:16;2.97;;;1.60;;
19946;SDS011;10135;50.702;7.276;2023-09-19T07:44:17;3.13;;;1.90;;
19946;SDS011;10135;50.702;7.276;2023-09-19T07:46:19;6.90;;;1.80;;
19946;SDS011;10135;50.702;7.276;2023-09-19T07:48:20;3.73;;;1.80;;
19946;SDS011;10135;50.702;7.276;2023-09-19T07:50:21;2.93;;;1.50;;
19946;SDS011;10135;50.702;7.276;2023-09-19T07:52:23;5.73;;;2.10;;
19946;SDS011;10135;50.702;7.276;2023-09-19T07:54:24;3.77;;;1.90;;
19946;SDS011;10135;50.702;7.276;2023-09-19T07:56:24;3.63;;;1.87;;
19946;SDS011;10135;50.702;7.276;2023-09-19T07:58:26;5.23;;;1.80;;
19946;SDS011;10135;50.702;7.276;2023-09-19T08:00:26;4.87;;;1.83;;
19946;SDS011;10135;50.702;7.276;2023-09-19T08:02:27;1.87;;;1.60;;
19946;SDS011;10135;50.702;7.276;2023-09-19T08:04:28;3.23;;;1.87;;
19946;SDS011;10135;50.702;7.276;2023-09-19T08:06:30;4.77;;;1.90;;
19946;SDS011;10135;50.702;7.276;2023-09-19T08:08:31;4.53;;;1.90;;
19946;SDS011;10135;50.702;7.276;2023-09-19T08:10:31;8.03;;;2.03;;
19946;SDS011;10135;50.702;7.276;2023-09-19T08:12:35;7.60;;;1.80;;
19946;SDS011;10135;50.702;7.276;2023-09-19T08:14:36;6.17;;;1.80;;
19946;SDS011;10135;50.702;7.276;2023-09-19T08:16:41;3.37;;;1.63;;
19946;SDS011;10135;50.702;7.276;2023-09-19T08:18:46;5.73;;;2.00;;
19946;SDS011;10135;50.702;7.276;2023-09-19T08:20:51;6.43;;;1.98;;
19946;SDS011;10135;50.702;7.276;2023-09-19T08:22:53;3.70;;;1.63;;
19946;SDS011;10135;50.702;7.276;2023-09-19T08:24:56;4.93;;;1.90;;
19946;SDS011;10135;50.702;7.276;2023-09-19T08:26:58;4.53;;;1.73;;
19946;SDS011;10135;50.702;7.276;2023-09-19T08:28:58;5.17;;;1.87;;
19946;SDS011;10135;50.702;7.276;2023-09-19T08:31:04;4.00;;;1.63;;
19946;SDS011;10135;50.702;7.276;2023-09-19T08:33:06;6.13;;;1.70;;
19946;SDS011;10135;50.702;7.276;2023-09-19T08:35:08;6.07;;;1.73;;
19946;SDS011;10135;50.702;7.276;2023-09-19T08:37:10;2.33;;;1.45;;
19946;SDS011;10135;50.702;7.276;2023-09-19T08:39:11;5.17;;;1.67;;
19946;SDS011;10135;50.702;7.276;2023-09-19T08:41:11;5.80;;;1.65;;
19946;SDS011;10135;50.702;7.276;2023-09-19T08:43:12;4.30;;;1.90;;
19946;SDS011;10135;50.702;7.276;2023-09-19T08:45:13;2.93;;;1.83;;
19946;SDS011;10135;50.702;7.276;2023-09-19T08:47:17;4.40;;;1.60;;
19946;SDS011;10135;50.702;7.276;2023-09-19T08:52:10;2.85;;;1.58;;
19946;SDS011;10135;50.702;7.276;2023-09-19T08:54:25;7.88;;;1.98;;
19946;SDS011;10135;50.702;7.276;2023-09-19T08:56:34;2.67;;;1.63;;
19946;SDS011;10135;50.702;7.276;2023-09-19T08:58:43;2.80;;;1.60;;
19946;SDS011;10135;50.702;7.276;2023-09-19T09:00:51;3.20;;;1.50;;
19946;SDS011;10135;50.702;7.276;2023-09-19T09:02:55;5.45;;;1.85;;
19946;SDS011;10135;50.702;7.276;2023-09-19T09:04:58;2.65;;;1.42;;
19946;SDS011;10135;50.702;7.276;2023-09-19T09:07:01;4.63;;;1.67;;
19946;SDS011;10135;50.702;7.276;2023-09-19T09:09:03;3.47;;;1.83;;
19946;SDS011;10135;50.702;7.276;2023-09-19T09:11:04;7.22;;;1.80;;
19946;SDS011;10135;50.702;7.276;2023-09-19T09:13:07;3.83;;;1.60;;
19946;SDS011;10135;50.702;7.276;2023-09-19T09:15:11;1.85;;;1.73;;
19946;SDS011;10135;50.702;7.276;2023-09-19T09:17:16;16.92;;;1.92;;
19946;SDS011;10135;50.702;7.276;2023-09-19T09:19:20;5.53;;;1.95;;
19946;SDS011;10135;50.702;7.276;2023-09-19T09:21:25;3.58;;;1.65;;
19946;SDS011;10135;50.702;7.276;2023-09-19T09:23:26;3.70;;;1.92;;
19946;SDS011;10135;50.702;7.276;2023-09-19T09:25:47;2.25;;;1.80;;
19946;SDS011;10135;50.702;7.276;2023-09-19T09:28:00;3.25;;;1.77;;
19946;SDS011;10135;50.702;7.276;2023-09-19T09:30:01;3.15;;;1.42;;
19946;SDS011;10135;50.702;7.276;2023-09-19T09:32:16;3.17;;;1.88;;
19946;SDS011;10135;50.702;7.276;2023-09-19T09:34:19;3.38;;;1.70;;
19946;SDS011;10135;50.702;7.276;2023-09-19T09:36:33;3.78;;;1.60;;
19946;SDS011;10135;50.702;7.276;2023-09-19T09:38:43;2.47;;;1.50;;
19946;SDS011;10135;50.702;7.276;2023-09-19T09:40:49;3.17;;;1.60;;
19946;SDS011;10135;50.702;7.276;2023-09-19T09:43:24;3.10;;;1.70;;
19946;SDS011;10135;50.702;7.276;2023-09-19T09:45:27;6.97;;;1.90;;
19946;SDS011;10135;50.702;7.276;2023-09-19T09:47:43;1.77;;;1.60;;
19946;SDS011;10135;50.702;7.276;2023-09-19T09:49:58;3.03;;;1.60;;
19946;SDS011;10135;50.702;7.276;2023-09-19T09:52:07;3.42;;;1.70;;
19946;SDS011;10135;50.702;7.276;2023-09-19T09:54:16;3.05;;;1.58;;
19946;SDS011;10135;50.702;7.276;2023-09-19T09:56:21;2.88;;;1.70;;
19946;SDS011;10135;50.702;7.276;2023-09-19T09:58:22;2.45;;;1.70;;
19946;SDS011;10135;50.702;7.276;2023-09-19T10:00:28;3.50;;;1.48;;
19946;SDS011;10135;50.702;7.276;2023-09-19T10:02:42;3.53;;;1.58;;
19946;SDS011;10135;50.702;7.276;2023-09-19T10:04:46;2.55;;;1.60;;
19946;SDS011;10135;50.702;7.276;2023-09-19T10:06:58;2.20;;;1.50;;
19946;SDS011;10135;50.702;7.276;2023-09-19T10:09:06;3.03;;;1.65;;
19946;SDS011;10135;50.702;7.276;2023-09-19T10:11:17;3.05;;;1.50;;
19946;SDS011;10135;50.702;7.276;2023-09-19T10:13:20;1.83;;;1.40;;
19946;SDS011;10135;50.702;7.276;2023-09-19T10:15:23;2.10;;;1.58;;
19946;SDS011;10135;50.702;7.276;2023-09-19T10:17:32;4.07;;;1.70;;
19946;SDS011;10135;50.702;7.276;2023-09-19T10:19:37;3.85;;;1.73;;
19946;SDS011;10135;50.702;7.276;2023-09-19T10:21:46;3.53;;;1.60;;
19946;SDS011;10135;50.702;7.276;2023-09-19T10:23:49;4.88;;;1.67;;
19946;SDS011;10135;50.702;7.276;2023-09-19T10:25:52;1.90;;;1.50;;
19946;SDS011;10135;50.702;7.276;2023-09-19T10:27:53;2.55;;;1.65;;
19946;SDS011;10135;50.702;7.276;2023-09-19T10:29:55;2.50;;;1.20;;
19946;SDS011;10135;50.702;7.276;2023-09-19T10:31:59;2.25;;;1.80;;
19946;SDS011;10135;50.702;7.276;2023-09-19T10:34:05;4.32;;;1.88;;
19946;SDS011;10135;50.702;7.276;2023-09-19T10:36:09;2.13;;;1.60;;
19946;SDS011;10135;50.702;7.276;2023-09-19T10:38:15;3.55;;;1.90;;
19946;SDS011;10135;50.702;7.276;2023-09-19T10:40:21;4.25;;;1.88;;
19946;SDS011;10135;50.702;7.276;2023-09-19T10:42:30;2.30;;;1.45;;
19946;SDS011;10135;50.702;7.276;2023-09-19T10:44:33;2.55;;;1.70;;
19946;SDS011;10135;50.702;7.276;2023-09-19T10:46:43;2.97;;;1.35;;
19946;SDS011;10135;50.702;7.276;2023-09-19T10:48:45;3.28;;;1.85;;
19946;SDS011;10135;50.702;7.276;2023-09-19T10:50:50;1.95;;;1.60;;
19946;SDS011;10135;50.702;7.276;2023-09-19T10:53:10;2.63;;;1.63;;
19946;SDS011;10135;50.702;7.276;2023-09-19T10:55:15;3.50;;;1.73;;
19946;SDS011;10135;50.702;7.276;2023-09-19T10:57:19;3.15;;;1.38;;
19946;SDS011;10135;50.702;7.276;2023-09-19T10:59:24;3.92;;;1.80;;
19946;SDS011;10135;50.702;7.276;2023-09-19T11:01:40;2.22;;;1.65;;
19946;SDS011;10135;50.702;7.276;2023-09-19T11:03:52;1.77;;;1.45;;
19946;SDS011;10135;50.702;7.276;2023-09-19T11:06:25;2.53;;;1.58;;
19946;SDS011;10135;50.702;7.276;2023-09-19T11:08:26;2.47;;;1.70;;
19946;SDS011;10135;50.702;7.276;2023-09-19T11:12:49;4.00;;;1.63;;
19946;SDS011;10135;50.702;7.276;2023-09-19T11:14:49;5.93;;;1.80;;
19946;SDS011;10135;50.702;7.276;2023-09-19T11:19:05;2.85;;;1.73;;
19946;SDS011;10135;50.702;7.276;2023-09-19T11:23:30;1.85;;;1.30;;
19946;SDS011;10135;50.702;7.276;2023-09-19T11:27:48;5.05;;;2.00;;
19946;SDS011;10135;50.702;7.276;2023-09-19T11:35:29;2.63;;;1.67;;
19946;SDS011;10135;50.702;7.276;2023-09-19T11:38:16;2.25;;;1.40;;
19946;SDS011;10135;50.702;7.276;2023-09-19T11:40:16;5.88;;;1.63;;
19946;SDS011;10135;50.702;7.276;2023-09-19T11:44:50;3.15;;;1.50;;
19946;SDS011;10135;50.702;7.276;2023-09-19T11:48:52;1.88;;;1.35;;
19946;SDS011;10135;50.702;7.276;2023-09-19T11:50:53;2.08;;;1.55;;
19946;SDS011;10135;50.702;7.276;2023-09-19T11:52:57;5.05;;;1.65;;
19946;SDS011;10135;50.702;7.276;2023-09-19T11:54:58;2.20;;;1.40;;
19946;SDS011;10135;50.702;7.276;2023-09-19T11:57:01;3.88;;;1.65;;
19946;SDS011;10135;50.702;7.276;2023-09-19T11:59:03;3.10;;;1.92;;
19946;SDS011;10135;50.702;7.276;2023-09-19T12:01:04;3.63;;;1.73;;
19946;SDS011;10135;50.702;7.276;2023-09-19T12:03:12;4.68;;;1.70;;
19946;SDS011;10135;50.702;7.276;2023-09-19T12:05:14;2.05;;;1.40;;
19946;SDS011;10135;50.702;7.276;2023-09-19T12:07:15;2.63;;;1.73;;
19946;SDS011;10135;50.702;7.276;2023-09-19T12:09:19;2.17;;;1.60;;
19946;SDS011;10135;50.702;7.276;2023-09-19T12:11:21;2.80;;;1.67;;
19946;SDS011;10135;50.702;7.276;2023-09-19T12:13:23;3.83;;;1.67;;
19946;SDS011;10135;50.702;7.276;2023-09-19T12:15:24;1.83;;;1.52;;
19946;SDS011;10135;50.702;7.276;2023-09-19T12:19:52;2.13;;;1.52;;
19946;SDS011;10135;50.702;7.276;2023-09-19T12:21:54;4.50;;;1.77;;
19946;SDS011;10135;50.702;7.276;2023-09-19T12:26:04;4.20;;;1.67;;
19946;SDS011;10135;50.702;7.276;2023-09-19T12:28:12;3.33;;;1.85;;
19946;SDS011;10135;50.702;7.276;2023-09-19T12:30:27;3.75;;;1.50;;
19946;SDS011;10135;50.702;7.276;2023-09-19T12:32:34;3.88;;;1.65;;
19946;SDS011;10135;50.702;7.276;2023-09-19T12:34:36;2.95;;;1.50;;
19946;SDS011;10135;50.702;7.276;2023-09-19T12:36:42;3.38;;;1.65;;
19946;SDS011;10135;50.702;7.276;2023-09-19T12:38:43;2.72;;;1.50;;
19946;SDS011;10135;50.702;7.276;2023-09-19T12:40:48;5.10;;;2.15;;
19946;SDS011;10135;50.702;7.276;2023-09-19T12:42:51;3.97;;;2.38;;
19946;SDS011;10135;50.702;7.276;2023-09-19T12:44:58;4.95;;;3.45;;
19946;SDS011;10135;50.702;7.276;2023-09-19T12:47:07;5.15;;;2.63;;
19946;SDS011;10135;50.702;7.276;2023-09-19T12:49:20;6.60;;;4.68;;
19946;SDS011;10135;50.702;7.276;2023-09-19T12:51:21;5.93;;;3.17;;
19946;SDS011;10135;50.702;7.276;2023-09-19T12:53:25;4.60;;;3.97;;
19946;SDS011;10135;50.702;7.276;2023-09-19T12:55:29;4.35;;;3.50;;
19946;SDS011;10135;50.702;7.276;2023-09-19T12:57:34;4.18;;;2.70;;
19946;SDS011;10135;50.702;7.276;2023-09-19T12:59:35;4.05;;;2.40;;
19946;SDS011;10135;50.702;7.276;2023-09-19T13:01:36;5.55;;;3.42;;
19946;SDS011;10135;50.702;7.276;2023-09-19T13:03:42;3.10;;;2.30;;
19946;SDS011;10135;50.702;7.276;2023-09-19T13:06:02;7.03;;;2.40;;
19946;SDS011;10135;50.702;7.276;2023-09-19T13:08:17;2.50;;;1.90;;
19946;SDS011;10135;50.702;7.276;2023-09-19T13:10:25;2.75;;;1.85;;
19946;SDS011;10135;50.702;7.276;2023-09-19T13:12:35;2.30;;;1.35;;
19946;SDS011;10135;50.702;7.276;2023-09-19T13:14:38;1.98;;;1.70;;
19946;SDS011;10135;50.702;7.276;2023-09-19T13:19:38;2.17;;;1.63;;
19946;SDS011;10135;50.702;7.276;2023-09-19T13:21:49;1.67;;;1.20;;
19946;SDS011;10135;50.702;7.276;2023-09-19T13:23:51;1.85;;;1.23;;
19946;SDS011;10135;50.702;7.276;2023-09-19T13:25:58;1.90;;;1.33;;
19946;SDS011;10135;50.702;7.276;2023-09-19T13:27:59;2.92;;;1.30;;
19946;SDS011;10135;50.702;7.276;2023-09-19T13:30:04;2.97;;;1.30;;
19946;SDS011;10135;50.702;7.276;2023-09-19T13:32:06;1.63;;;0.98;;
19946;SDS011;10135;50.702;7.276;2023-09-19T13:34:06;3.40;;;1.23;;
19946;SDS011;10135;50.702;7.276;2023-09-19T13:36:07;3.42;;;1.45;;
19946;SDS011;10135;50.702;7.276;2023-09-19T13:38:08;2.13;;;1.30;;
19946;SDS011;10135;50.702;7.276;2023-09-19T13:40:13;2.10;;;1.42;;
19946;SDS011;10135;50.702;7.276;2023-09-19T13:42:15;2.05;;;1.10;;
19946;SDS011;10135;50.702;7.276;2023-09-19T13:44:16;1.75;;;1.00;;
19946;SDS011;10135;50.702;7.276;2023-09-19T13:46:17;0.93;;;0.90;;
19946;SDS011;10135;50.702;7.276;2023-09-19T13:48:25;1.55;;;0.95;;
19946;SDS011;10135;50.702;7.276;2023-09-19T13:50:26;1.17;;;1.08;;
19946;SDS011;10135;50.702;7.276;2023-09-19T13:52:29;1.42;;;1.02;;
19946;SDS011;10135;50.702;7.276;2023-09-19T13:54:31;0.80;;;0.80;;
19946;SDS011;10135;50.702;7.276;2023-09-19T13:56:32;1.17;;;1.08;;
19946;SDS011;10135;50.702;7.276;2023-09-19T13:58:33;1.58;;;1.08;;
19946;SDS011;10135;50.702;7.276;2023-09-19T14:00:34;1.40;;;1.17;;
19946;SDS011;10135;50.702;7.276;2023-09-19T14:02:34;1.17;;;1.10;;
19946;SDS011;10135;50.702;7.276;2023-09-19T14:04:35;1.02;;;1.02;;
19946;SDS011;10135;50.702;7.276;2023-09-19T14:06:36;1.25;;;1.15;;
19946;SDS011;10135;50.702;7.276;2023-09-19T14:08:37;1.33;;;1.15;;
19946;SDS011;10135;50.702;7.276;2023-09-19T14:10:38;1.30;;;1.00;;
19946;SDS011;10135;50.702;7.276;2023-09-19T14:12:39;1.45;;;1.05;;
19946;SDS011;10135;50.702;7.276;2023-09-19T14:14:43;2.00;;;1.13;;
19946;SDS011;10135;50.702;7.276;2023-09-19T14:16:45;1.20;;;1.10;;
19946;SDS011;10135;50.702;7.276;2023-09-19T14:18:47;1.20;;;1.10;;
19946;SDS011;10135;50.702;7.276;2023-09-19T14:20:48;1.02;;;0.98;;
19946;SDS011;10135;50.702;7.276;2023-09-19T14:22:50;1.38;;;1.10;;
19946;SDS011;10135;50.702;7.276;2023-09-19T14:24:50;0.93;;;0.90;;
19946;SDS011;10135;50.702;7.276;2023-09-19T14:26:52;2.75;;;1.15;;
19946;SDS011;10135;50.702;7.276;2023-09-19T14:28:53;1.33;;;1.08;;
19946;SDS011;10135;50.702;7.276;2023-09-19T14:30:53;1.15;;;1.05;;
19946;SDS011;10135;50.702;7.276;2023-09-19T14:32:54;0.90;;;0.90;;
19946;SDS011;10135;50.702;7.276;2023-09-19T14:34:55;2.45;;;1.27;;
19946;SDS011;10135;50.702;7.276;2023-09-19T14:36:56;1.65;;;0.95;;
19946;SDS011;10135;50.702;7.276;2023-09-19T14:38:56;1.05;;;0.93;;
19946;SDS011;10135;50.702;7.276;2023-09-19T14:41:00;1.80;;;1.02;;
19946;SDS011;10135;50.702;7.276;2023-09-19T14:43:03;1.73;;;1.10;;
19946;SDS011;10135;50.702;7.276;2023-09-19T14:45:04;1.15;;;1.00;;
19946;SDS011;10135;50.702;7.276;2023-09-19T14:47:05;3.03;;;1.10;;
19946;SDS011;10135;50.702;7.276;2023-09-19T14:49:07;1.58;;;1.10;;
19946;SDS011;10135;50.702;7.276;2023-09-19T14:51:10;1.35;;;1.00;;
19946;SDS011;10135;50.702;7.276;2023-09-19T14:53:11;1.20;;;1.08;;
19946;SDS011;10135;50.702;7.276;2023-09-19T14:55:12;1.98;;;1.10;;
19946;SDS011;10135;50.702;7.276;2023-09-19T14:57:14;0.88;;;0.88;;
19946;SDS011;10135;50.702;7.276;2023-09-19T14:59:14;2.08;;;1.00;;
19946;SDS011;10135;50.702;7.276;2023-09-19T15:01:15;0.93;;;0.93;;
19946;SDS011;10135;50.702;7.276;2023-09-19T15:03:16;1.15;;;0.90;;
19946;SDS011;10135;50.702;7.276;2023-09-19T15:05:17;1.70;;;1.13;;
19946;SDS011;10135;50.702;7.276;2023-09-19T15:07:18;1.95;;;1.10;;
19946;SDS011;10135;50.702;7.276;2023-09-19T15:09:20;1.50;;;0.90;;
19946;SDS011;10135;50.702;7.276;2023-09-19T15:11:26;2.28;;;0.98;;
19946;SDS011;10135;50.702;7.276;2023-09-19T15:13:27;1.40;;;0.90;;
19946;SDS011;10135;50.702;7.276;2023-09-19T15:15:30;1.58;;;1.08;;
19946;SDS011;10135;50.702;7.276;2023-09-19T15:17:32;1.17;;;1.00;;
19946;SDS011;10135;50.702;7.276;2023-09-19T15:19:33;0.90;;;0.90;;
19946;SDS011;10135;50.702;7.276;2023-09-19T15:21:34;3.25;;;1.23;;
19946;SDS011;10135;50.702;7.276;2023-09-19T15:23:37;1.85;;;1.20;;
19946;SDS011;10135;50.702;7.276;2023-09-19T15:25:39;1.48;;;1.10;;
19946;SDS011;10135;50.702;7.276;2023-09-19T15:27:51;1.48;;;1.10;;
19946;SDS011;10135;50.702;7.276;2023-09-19T15:29:51;4.07;;;1.08;;
19946;SDS011;10135;50.702;7.276;2023-09-19T15:31:53;0.98;;;0.98;;
19946;SDS011;10135;50.702;7.276;2023-09-19T15:33:58;1.88;;;1.33;;
19946;SDS011;10135;50.702;7.276;2023-09-19T15:36:13;2.83;;;1.00;;
19946;SDS011;10135;50.702;7.276;2023-09-19T15:38:15;3.10;;;1.20;;
19946;SDS011;10135;50.702;7.276;2023-09-19T15:40:16;2.00;;;1.13;;
19946;SDS011;10135;50.702;7.276;2023-09-19T15:42:16;1.08;;;1.05;;
19946;SDS011;10135;50.702;7.276;2023-09-19T15:44:18;1.38;;;1.20;;
19946;SDS011;10135;50.702;7.276;2023-09-19T15:46:19;3.08;;;1.20;;
19946;SDS011;10135;50.702;7.276;2023-09-19T15:48:22;0.82;;;0.82;;
19946;SDS011;10135;50.702;7.276;2023-09-19T15:50:22;3.28;;;1.65;;
19946;SDS011;10135;50.702;7.276;2023-09-19T15:52:23;6.45;;;3.17;;
19946;SDS011;10135;50.702;7.276;2023-09-19T15:54:26;3.35;;;2.97;;
19946;SDS011;10135;50.702;7.276;2023-09-19T15:56:27;8.57;;;5.47;;
19946;SDS011;10135;50.702;7.276;2023-09-19T15:58:28;8.38;;;4.60;;
19946;SDS011;10135;50.702;7.276;2023-09-19T16:00:28;8.70;;;4.45;;
19946;SDS011;10135;50.702;7.276;2023-09-19T16:02:29;11.02;;;5.18;;
19946;SDS011;10135;50.702;7.276;2023-09-19T16:04:30;6.35;;;3.58;;
19946;SDS011;10135;50.702;7.276;2023-09-19T16:06:31;5.05;;;2.97;;
19946;SDS011;10135;50.702;7.276;2023-09-19T16:08:31;3.80;;;2.75;;
19946;SDS011;10135;50.702;7.276;2023-09-19T16:10:34;2.75;;;2.28;;
19946;SDS011;10135;50.702;7.276;2023-09-19T16:12:37;3.20;;;2.20;;
19946;SDS011;10135;50.702;7.276;2023-09-19T16:14:39;2.90;;;1.80;;
19946;SDS011;10135;50.702;7.276;2023-09-19T16:16:40;1.77;;;1.50;;
19946;SDS011;10135;50.702;7.276;2023-09-19T16:18:47;3.78;;;1.65;;
19946;SDS011;10135;50.702;7.276;2023-09-19T16:21:03;1.60;;;1.48;;
19946;SDS011;10135;50.702;7.276;2023-09-19T16:23:04;1.27;;;1.17;;
19946;SDS011;10135;50.702;7.276;2023-09-19T16:25:05;1.77;;;1.30;;
19946;SDS011;10135;50.702;7.276;2023-09-19T16:27:06;6.75;;;1.23;;
19946;SDS011;10135;50.702;7.276;2023-09-19T16:29:07;1.00;;;1.00;;
19946;SDS011;10135;50.702;7.276;2023-09-19T16:31:09;1.95;;;1.10;;
19946;SDS011;10135;50.702;7.276;2023-09-19T16:33:10;1.77;;;1.10;;
19946;SDS011;10135;50.702;7.276;2023-09-19T16:35:11;0.90;;;0.90;;
19946;SDS011;10135;50.702;7.276;2023-09-19T16:37:12;1.63;;;1.10;;
19946;SDS011;10135;50.702;7.276;2023-09-19T16:39:14;1.58;;;1.27;;
19946;SDS011;10135;50.702;7.276;2023-09-19T16:41:15;0.90;;;0.90;;
19946;SDS011;10135;50.702;7.276;2023-09-19T16:43:19;1.70;;;1.00;;
19946;SDS011;10135;50.702;7.276;2023-09-19T16:45:22;0.70;;;0.70;;
19946;SDS011;10135;50.702;7.276;2023-09-19T16:47:23;2.08;;;1.17;;
19946;SDS011;10135;50.702;7.276;2023-09-19T16:49:24;3.40;;;1.17;;
19946;SDS011;10135;50.702;7.276;2023-09-19T16:51:25;2.50;;;2.30;;
19946;SDS011;10135;50.702;7.276;2023-09-19T16:53:27;2.70;;;2.10;;
19946;SDS011;10135;50.702;7.276;2023-09-19T16:55:27;3.45;;;2.75;;
19946;SDS011;10135;50.702;7.276;2023-09-19T16:57:28;6.07;;;3.47;;
19946;SDS011;10135;50.702;7.276;2023-09-19T16:59:29;5.70;;;2.83;;
19946;SDS011;10135;50.702;7.276;2023-09-19T17:01:30;7.10;;;2.92;;
19946;SDS011;10135;50.702;7.276;2023-09-19T17:03:32;3.95;;;2.20;;
19946;SDS011;10135;50.702;7.276;2023-09-19T17:05:35;6.13;;;2.03;;
19946;SDS011;10135;50.702;7.276;2023-09-19T17:07:37;1.70;;;1.60;;
19946;SDS011;10135;50.702;7.276;2023-09-19T17:09:38;2.65;;;1.40;;
19946;SDS011;10135;50.702;7.276;2023-09-19T17:11:39;1.30;;;1.20;;
19946;SDS011;10135;50.702;7.276;2023-09-19T17:13:40;2.25;;;1.48;;
19946;SDS011;10135;50.702;7.276;2023-09-19T17:15:41;1.27;;;1.17;;
19946;SDS011;10135;50.702;7.276;2023-09-19T17:17:41;1.50;;;1.20;;
19946;SDS011;10135;50.702;7.276;2023-09-19T17:19:42;1.17;;;1.17;;
19946;SDS011;10135;50.702;7.276;2023-09-19T17:21:43;2.50;;;0.90;;
19946;SDS011;10135;50.702;7.276;2023-09-19T17:23:44;1.77;;;1.25;;
19946;SDS011;10135;50.702;7.276;2023-09-19T17:25:45;2.08;;;1.33;;
19946;SDS011;10135;50.702;7.276;2023-09-19T17:27:46;2.10;;;1.05;;
19946;SDS011;10135;50.702;7.276;2023-09-19T17:29:47;1.10;;;1.00;;
19946;SDS011;10135;50.702;7.276;2023-09-19T17:31:48;1.55;;;1.02;;
19946;SDS011;10135;50.702;7.276;2023-09-19T17:33:48;1.45;;;0.95;;
19946;SDS011;10135;50.702;7.276;2023-09-19T17:35:51;1.38;;;1.00;;
19946;SDS011;10135;50.702;7.276;2023-09-19T17:38:04;2.65;;;1.20;;
19946;SDS011;10135;50.702;7.276;2023-09-19T17:40:06;1.27;;;0.90;;
19946;SDS011;10135;50.702;7.276;2023-09-19T17:42:10;1.27;;;0.98;;
19946;SDS011;10135;50.702;7.276;2023-09-19T17:44:12;1.02;;;1.02;;
19946;SDS011;10135;50.702;7.276;2023-09-19T17:46:13;0.80;;;0.80;;
19946;SDS011;10135;50.702;7.276;2023-09-19T17:48:16;1.98;;;1.10;;
19946;SDS011;10135;50.702;7.276;2023-09-19T17:50:17;1.00;;;0.88;;
19946;SDS011;10135;50.702;7.276;2023-09-19T17:52:17;1.00;;;0.90;;
19946;SDS011;10135;50.702;7.276;2023-09-19T17:54:18;1.80;;;0.82;;